Time;durP1;ratioP1;P1;durP2;ratioP2;P2;SDS_P1;SDS_P2;PMS_P1;PMS_P2;Temp;Humidity;BMP_temperature;BMP_pressure;BME280_temperature;BME280_humidity;BME280_pressure;Samples;Min_cycle;Max_cycle;Signal;HPM_P1;HPM_P2
2023/03/01 00:00:35;;;;;;;27.33;24.48;;;;;;;-1.67;71.02;99266.03;5047306;28;20025;-76
2023/03/01 00:03:01;;;;;;;26.67;23.40;;;;;;;-1.61;70.81;99268.94;5067155;28;20032;-76
2023/03/01 00:05:26;;;;;;;27.30;24.40;;;;;;;-1.66;71.21;99276.47;5061439;28;20124;-76
2023/03/01 00:07:55;;;;;;;26.83;24.13;;;;;;;-1.76;71.93;99269.53;5080785;28;20036;-75
2023/03/01 00:10:20;;;;;;;28.08;25.13;;;;;;;-1.74;71.73;99267.56;5085164;28;20020;-76
2023/03/01 00:12:45;;;;;;;27.60;24.80;;;;;;;-1.67;71.04;99261.59;5083511;28;20039;-75
2023/03/01 00:15:11;;;;;;;27.95;24.25;;;;;;;-1.66;71.34;99257.16;5065782;28;20111;-75
2023/03/01 00:17:37;;;;;;;27.65;24.70;;;;;;;-1.73;71.51;99253.41;5058597;28;20036;-75
2023/03/01 00:20:03;;;;;;;28.70;25.60;;;;;;;-1.64;71.28;99236.72;5072818;28;20020;-76
2023/03/01 00:22:28;;;;;;;28.05;25.13;;;;;;;-1.67;71.29;99237.81;5054517;28;20058;-76
2023/03/01 00:24:53;;;;;;;29.17;26.27;;;;;;;-1.72;72.24;99240.06;5063964;28;20024;-77
2023/03/01 00:27:19;;;;;;;29.73;26.58;;;;;;;-1.71;72.24;99236.44;5066317;28;20514;-76
2023/03/01 00:29:44;;;;;;;28.75;25.67;;;;;;;-1.63;71.61;99238.34;5060446;28;20024;-76
2023/03/01 00:32:10;;;;;;;28.40;25.60;;;;;;;-1.70;72.28;99235.47;5059281;28;20180;-76
2023/03/01 00:34:35;;;;;;;29.58;25.83;;;;;;;-1.83;72.58;99224.38;5062519;28;20032;-75
2023/03/01 00:37:04;;;;;;;29.38;25.20;;;;;;;-1.78;72.56;99223.94;5065837;28;20039;-76
2023/03/01 00:39:31;;;;;;;29.60;26.35;;;;;;;-1.73;72.48;99225.22;5091218;28;20486;-76
2023/03/01 00:41:57;;;;;;;29.13;26.13;;;;;;;-1.72;72.13;99228.66;5058531;28;20091;-76
2023/03/01 00:44:22;;;;;;;28.65;25.75;;;;;;;-1.84;72.26;99220.06;5055023;28;20024;-77
2023/03/01 00:46:48;;;;;;;28.10;25.10;;;;;;;-1.81;72.74;99230.34;5074091;28;20081;-77
2023/03/01 00:49:14;;;;;;;31.48;28.27;;;;;;;-1.78;72.22;99227.44;5058134;28;20024;-76
2023/03/01 00:51:41;;;;;;;29.88;26.80;;;;;;;-1.75;72.55;99245.59;5080217;28;20439;-76
2023/03/01 00:54:08;;;;;;;29.75;26.75;;;;;;;-1.73;72.68;99233.13;5068150;28;20024;-76
2023/03/01 00:56:34;;;;;;;29.42;26.33;;;;;;;-1.73;72.69;99237.56;5067615;28;20097;-77
2023/03/01 00:59:00;;;;;;;29.33;26.33;;;;;;;-1.72;71.91;99237.41;5044345;28;20475;-76
2023/03/01 01:01:30;;;;;;;28.58;25.67;;;;;;;-1.65;71.50;99235.88;5058402;28;20029;-76
2023/03/01 01:04:07;;;;;;;28.20;25.30;;;;;;;-1.82;72.45;99227.84;5074882;28;20511;-75
2023/03/01 01:06:39;;;;;;;29.23;26.15;;;;;;;-1.73;73.03;99227.84;5073085;28;20042;-75
2023/03/01 01:09:06;;;;;;;30.52;27.33;;;;;;;-1.85;72.72;99223.69;5080139;28;20044;-76
2023/03/01 01:11:32;;;;;;;31.67;28.27;;;;;;;-1.85;72.89;99223.69;5060323;28;20031;-76
2023/03/01 01:13:58;;;;;;;32.47;29.10;;;;;;;-1.92;73.24;99214.66;5065164;28;20032;-76
2023/03/01 01:16:25;;;;;;;30.90;27.83;;;;;;;-1.87;73.19;99214.25;5039639;28;20016;-77
2023/03/01 01:18:51;;;;;;;31.45;28.30;;;;;;;-1.98;73.39;99223.13;5045042;28;20037;-76
2023/03/01 01:21:18;;;;;;;31.85;28.70;;;;;;;-2.05;73.25;99214.09;5067485;28;20024;-75
2023/03/01 01:23:44;;;;;;;31.10;27.73;;;;;;;-2.05;73.05;99211.47;5054649;28;20053;-75
2023/03/01 01:26:13;;;;;;;32.25;28.90;;;;;;;-2.08;72.85;99209.13;5067274;28;20091;-76
2023/03/01 01:28:39;;;;;;;33.95;30.40;;;;;;;-2.12;73.01;99203.28;5046844;28;20036;-75
2023/03/01 01:31:05;;;;;;;29.88;26.80;;;;;;;-2.02;72.98;99200.66;5059776;28;20025;-76
2023/03/01 01:33:31;;;;;;;30.65;27.35;;;;;;;-2.11;72.82;99207.59;5073834;28;20043;-75
2023/03/01 01:35:56;;;;;;;28.90;26.02;;;;;;;-2.06;72.18;99198.44;5084411;28;20512;-76
2023/03/01 01:38:21;;;;;;;30.92;27.67;;;;;;;-2.15;72.52;99189.56;5080201;28;20376;-76
2023/03/01 01:40:48;;;;;;;28.55;25.65;;;;;;;-1.95;71.95;99188.56;5054789;28;20029;-77
2023/03/01 01:43:24;;;;;;;32.15;23.50;;;;;;;-2.01;72.10;99191.75;5063512;28;20025;-76
2023/03/01 01:45:49;;;;;;;;;;;;;;;-1.96;71.71;99194.78;5061103;28;20357;-76
2023/03/01 01:48:40;;;;;;;31.17;22.38;;;;;;;-2.02;71.73;99190.09;5081465;28;19915;-77
2023/03/01 01:51:07;;;;;;;29.58;26.48;;;;;;;-2.12;72.20;99181.34;5063097;28;20096;-75
2023/03/01 01:53:32;;;;;;;29.70;26.42;;;;;;;-2.11;72.03;99190.94;5040871;28;20039;-76
2023/03/01 01:56:00;;;;;;;29.30;26.13;;;;;;;-2.09;71.56;99183.72;5046738;28;20032;-76
2023/03/01 01:58:27;;;;;;;27.73;24.83;;;;;;;-2.12;71.25;99176.06;5052365;28;20025;-75
2023/03/01 02:00:53;;;;;;;31.05;26.85;;;;;;;-2.23;72.02;99163.03;5062238;28;20368;-76
2023/03/01 02:03:28;;;;;;;29.00;26.00;;;;;;;-2.23;72.05;99171.78;5057548;28;20021;-76
2023/03/01 02:06:20;;;;;;;29.38;26.35;;;;;;;-2.15;72.35;99163.97;5061912;28;20120;-76
2023/03/01 02:08:48;;;;;;;29.08;26.02;;;;;;;-2.27;72.50;99162.50;5087417;28;20040;-76
2023/03/01 02:11:16;;;;;;;29.90;26.67;;;;;;;-2.19;72.34;99165.25;5053492;28;20031;-76
2023/03/01 02:13:42;;;;;;;30.40;22.48;;;;;;;-2.11;71.56;99164.56;5068270;28;20041;-76
2023/03/01 02:16:10;;;;;;;30.27;26.92;;;;;;;-2.12;71.64;99162.88;5063603;28;20051;-75
2023/03/01 02:18:38;;;;;;;29.80;26.60;;;;;;;-2.12;72.12;99168.16;5080943;28;20032;-76
2023/03/01 02:21:08;;;;;;;31.55;22.35;;;;;;;-2.24;71.92;99161.38;5063998;28;20028;-77
2023/03/01 02:23:34;;;;;;;29.23;26.10;;;;;;;-2.28;72.99;99157.34;5081258;28;20035;-77
2023/03/01 02:26:07;;;;;;;31.67;28.38;;;;;;;-2.24;73.00;99162.19;5063470;28;20017;-77
2023/03/01 02:28:35;;;;;;;30.60;27.48;;;;;;;-2.27;73.07;99148.47;5085241;28;20488;-75
2023/03/01 02:33:45;;;;;;;31.05;23.40;;;;;;;-2.28;72.92;99150.25;5070276;28;20035;-76
2023/03/01 02:36:15;;;;;;;31.13;27.92;;;;;;;-2.29;73.23;99150.41;5063032;28;20043;-77
2023/03/01 02:38:41;;;;;;;32.25;28.75;;;;;;;-2.32;73.61;99153.31;5061243;28;20036;-76
2023/03/01 02:41:07;;;;;;;30.58;27.60;;;;;;;-2.24;73.51;99145.56;5048486;28;20070;-75
2023/03/01 02:43:34;;;;;;;31.33;28.13;;;;;;;-2.28;73.38;99137.06;5059501;28;20036;-76
2023/03/01 02:46:05;;;;;;;33.85;30.42;;;;;;;-2.23;73.30;99129.56;5062937;28;20399;-76
2023/03/01 02:48:56;;;;;;;32.22;29.02;;;;;;;-2.20;73.14;99139.03;5060653;28;20043;-79
2023/03/01 02:51:39;;;;;;;31.73;28.63;;;;;;;-2.20;73.05;99137.22;5055037;28;20039;-75
2023/03/01 02:54:28;;;;;;;32.97;29.63;;;;;;;-2.26;73.55;99129.00;5046072;28;20031;-76
2023/03/01 02:56:53;;;;;;;31.35;28.30;;;;;;;-2.26;73.47;99118.47;5064728;28;20492;-75
2023/03/01 02:59:23;;;;;;;29.25;24.73;;;;;;;-2.35;73.13;99127.22;5064962;28;20028;-76
2023/03/01 03:01:49;;;;;;;32.88;29.40;;;;;;;-2.28;73.04;99115.13;5064680;28;20024;-75
2023/03/01 03:04:17;;;;;;;31.35;28.17;;;;;;;-2.24;72.35;99119.19;5055904;28;20032;-75
2023/03/01 03:06:45;;;;;;;31.85;28.55;;;;;;;-2.25;72.51;99114.84;5069422;28;20024;-75
2023/03/01 03:09:12;;;;;;;29.70;26.70;;;;;;;-2.29;72.92;99118.75;5065884;28;20141;-75
2023/03/01 03:11:39;;;;;;;29.52;21.95;;;;;;;-2.32;72.79;99113.75;5046066;28;20028;-74
2023/03/01 03:14:05;;;;;;;29.83;26.63;;;;;;;-2.26;72.51;99121.09;5076256;28;20399;-74
2023/03/01 03:16:31;;;;;;;29.85;26.95;;;;;;;-2.36;72.67;99115.03;5076102;28;20069;-74
2023/03/01 03:19:04;;;;;;;29.92;26.95;;;;;;;-2.27;72.37;99116.81;5071131;28;20078;-75
2023/03/01 03:21:33;;;;;;;30.95;27.60;;;;;;;-2.28;71.80;99115.13;5076590;28;20479;-74
2023/03/01 03:23:58;;;;;;;30.10;27.00;;;;;;;-2.34;72.27;99113.06;5093783;28;20052;-75
2023/03/01 03:26:24;;;;;;;29.65;22.33;;;;;;;-2.34;72.16;99110.44;5045804;28;20121;-73
2023/03/01 03:28:49;;;;;;;30.17;27.17;;;;;;;-2.33;71.75;99112.09;5065175;28;20024;-74
2023/03/01 03:31:15;;;;;;;29.75;26.63;;;;;;;-2.39;72.46;99113.50;5072738;28;20032;-75
2023/03/01 03:33:40;;;;;;;29.90;26.88;;;;;;;-2.31;71.88;99110.16;5075618;28;20024;-75
2023/03/01 03:36:06;;;;;;;30.90;22.10;;;;;;;-2.36;71.85;99112.38;5069029;28;20029;-75
2023/03/01 03:38:31;;;;;;;31.55;26.77;;;;;;;-2.26;72.06;99115.81;5073499;28;20032;-76
2023/03/01 03:41:02;;;;;;;29.20;26.13;;;;;;;-2.30;71.64;99117.09;5062431;28;20036;-73
2023/03/01 03:43:28;;;;;;;29.40;26.42;;;;;;;-2.34;71.30;99115.72;5075488;28;20102;-74
2023/03/01 03:45:54;;;;;;;29.63;26.60;;;;;;;-2.30;71.53;99111.81;5073463;23;20553;-76
2023/03/01 03:48:19;;;;;;;27.67;24.85;;;;;;;-2.24;71.23;99111.25;5071993;28;20048;-75
2023/03/01 03:50:51;;;;;;;28.13;20.92;;;;;;;-2.29;71.14;99103.75;5052017;28;20036;-74
2023/03/01 03:53:16;;;;;;;28.50;25.40;;;;;;;-2.28;70.76;99115.13;5055035;28;20048;-75
2023/03/01 03:55:44;;;;;;;30.02;22.15;;;;;;;-2.33;71.38;99099.72;5067186;28;20112;-75
2023/03/01 03:58:10;;;;;;;34.25;22.92;;;;;;;-2.41;71.89;99093.50;5063199;28;20398;-75
2023/03/01 04:00:38;;;;;;;30.00;26.80;;;;;;;-2.33;71.38;99104.16;5050294;28;20099;-75
2023/03/01 04:03:03;;;;;;;31.90;28.50;;;;;;;-2.40;71.64;99097.78;5063268;28;20064;-75
2023/03/01 04:05:29;;;;;;;29.17;26.17;;;;;;;-2.44;71.61;99106.97;5051613;28;20057;-75
2023/03/01 04:08:01;;;;;;;29.48;26.38;;;;;;;-2.50;71.95;99110.19;5064295;28;20040;-74
2023/03/01 04:10:28;;;;;;;31.60;28.15;;;;;;;-2.53;72.66;99121.00;5059278;28;20044;-75
2023/03/01 04:12:55;;;;;;;31.98;28.63;;;;;;;-2.69;73.41;99110.19;5058693;28;20052;-75
2023/03/01 04:15:23;;;;;;;32.20;28.80;;;;;;;-2.54;72.79;99119.31;5065977;28;20041;-74
2023/03/01 04:17:50;;;;;;;30.88;27.77;;;;;;;-2.83;72.77;99116.69;5064362;28;20104;-74
2023/03/01 04:20:24;;;;;;;32.42;22.33;;;;;;;-2.68;72.88;99122.41;5051602;28;20123;-74
2023/03/01 04:23:15;;;;;;;30.40;27.10;;;;;;;-2.62;72.57;99100.75;5048516;28;20056;-73
2023/03/01 04:25:46;;;;;;;30.55;26.30;;;;;;;-2.58;73.24;99107.38;5062980;28;20040;-73
2023/03/01 04:28:11;;;;;;;33.22;22.48;;;;;;;-2.61;72.42;99102.41;5057731;28;20380;-74
2023/03/01 04:30:38;;;;;;;30.30;27.17;;;;;;;-2.60;72.71;99101.44;5049611;28;20031;-74
2023/03/01 04:33:08;;;;;;;30.75;27.30;;;;;;;-2.49;72.19;99096.84;5056261;28;20052;-73
2023/03/01 04:35:35;;;;;;;30.73;27.15;;;;;;;-2.66;72.61;99088.81;5063810;28;20032;-75
2023/03/01 04:38:00;;;;;;;30.05;26.95;;;;;;;-2.61;72.76;99089.25;5058768;28;20032;-74
2023/03/01 04:40:26;;;;;;;29.77;21.30;;;;;;;-2.63;72.70;99086.72;5058406;28;20484;-75
2023/03/01 04:42:51;;;;;;;31.83;27.02;;;;;;;-2.53;72.84;99084.09;5065654;28;20017;-76
2023/03/01 04:45:17;;;;;;;31.02;27.77;;;;;;;-2.50;72.52;99099.63;5046179;28;20054;-75
2023/03/01 04:47:44;;;;;;;34.10;22.65;;;;;;;-2.51;72.80;99093.53;5084297;28;20104;-75
2023/03/01 04:50:11;;;;;;;30.45;26.98;;;;;;;-2.37;71.92;99097.53;5050761;28;20119;-75
2023/03/01 04:52:36;;;;;;;30.02;23.77;;;;;;;-2.38;71.90;99099.31;5056145;28;20021;-76
2023/03/01 04:55:02;;;;;;;29.05;26.02;;;;;;;-2.25;70.79;99093.75;5053705;28;20067;-76
2023/03/01 04:57:27;;;;;;;31.40;21.08;;;;;;;-2.27;70.86;99095.72;5048386;28;20104;-74
2023/03/01 04:59:52;;;;;;;30.05;25.70;;;;;;;-2.35;71.65;99098.22;5046410;28;20032;-74
2023/03/01 05:02:18;;;;;;;31.80;24.38;;;;;;;-2.28;71.01;99099.31;5056942;28;20542;-75
2023/03/01 05:04:43;;;;;;;28.38;25.13;;;;;;;-2.35;71.09;99088.50;5058682;28;20090;-74
2023/03/01 05:07:09;;;;;;;29.23;26.05;;;;;;;-2.32;70.74;99090.03;5064313;28;20025;-74
2023/03/01 05:09:34;;;;;;;29.98;21.23;;;;;;;-2.36;71.50;99096.56;5064290;28;20116;-75
2023/03/01 05:12:00;;;;;;;28.38;24.60;;;;;;;-2.34;71.27;99110.44;5056900;28;20069;-74
2023/03/01 05:14:25;;;;;;;28.13;24.00;;;;;;;-2.38;71.62;99099.31;5033525;28;20033;-75
2023/03/01 05:16:50;;;;;;;31.73;25.42;;;;;;;-2.31;71.10;99100.41;5070715;28;20039;-75
2023/03/01 05:19:16;;;;;;;29.33;26.20;;;;;;;-2.30;71.41;99090.72;5058272;28;20551;-74
2023/03/01 05:24:29;;;;;;;29.77;26.00;;;;;;;-2.33;71.07;99080.44;5055249;28;20044;-74
2023/03/01 05:26:55;;;;;;;29.25;25.95;;;;;;;-2.28;71.28;99072.94;5058981;28;20028;-74
2023/03/01 05:29:25;;;;;;;34.78;22.10;;;;;;;-2.34;71.13;99079.63;5050695;28;20045;-75
2023/03/01 05:32:00;;;;;;;31.00;27.73;;;;;;;-2.34;71.49;99084.06;5059283;28;20067;-74
2023/03/01 05:34:35;;;;;;;29.73;26.65;;;;;;;-2.39;72.18;99086.28;5080810;28;20570;-74
2023/03/01 05:37:00;;;;;;;33.00;22.70;;;;;;;-2.44;72.12;99084.06;5058266;28;20041;-75
2023/03/01 05:39:27;;;;;;;30.33;26.35;;;;;;;-2.37;71.93;99074.63;5063262;28;20493;-74
2023/03/01 05:41:54;;;;;;;32.30;24.85;;;;;;;-2.39;71.45;99075.75;5043651;28;20673;-74
2023/03/01 05:44:20;;;;;;;29.42;26.27;;;;;;;-2.42;71.48;99083.91;5054751;28;21830;-75
2023/03/01 05:46:46;;;;;;;31.40;22.05;;;;;;;-2.48;72.20;99077.44;5056004;28;20129;-74
2023/03/01 05:49:13;;;;;;;30.05;26.90;;;;;;;-2.46;71.88;99070.19;5061876;28;20506;-74
2023/03/01 05:51:42;;;;;;;29.10;26.00;;;;;;;-2.45;71.91;99068.41;5060626;28;20665;-74
2023/03/01 05:54:08;;;;;;;31.23;27.90;;;;;;;-2.45;72.06;99071.03;5046576;28;20025;-74
2023/03/01 05:56:34;;;;;;;29.55;26.02;;;;;;;-2.56;72.06;99058.81;5062638;28;20487;-74
2023/03/01 05:59:00;;;;;;;32.95;23.30;;;;;;;-2.48;72.37;99060.78;5056445;28;20028;-74
2023/03/01 06:01:26;;;;;;;30.30;27.30;;;;;;;-2.46;71.77;99064.09;5058207;28;20510;-74
2023/03/01 06:03:51;;;;;;;31.65;28.00;;;;;;;-2.40;71.65;99068.78;5062801;28;20116;-76
2023/03/01 06:06:17;;;;;;;34.33;23.58;;;;;;;-2.42;71.72;99073.38;5062451;28;20052;-74
2023/03/01 06:08:42;;;;;;;30.20;27.10;;;;;;;-2.43;72.02;99063.81;5057052;28;20471;-77
2023/03/01 06:11:07;;;;;;;30.60;26.75;;;;;;;-2.41;71.62;99080.31;5050006;28;20116;-76
2023/03/01 06:13:33;;;;;;;34.30;22.88;;;;;;;-2.49;71.10;99072.28;5064440;28;20058;-73
2023/03/01 06:15:58;;;;;;;30.83;27.52;;;;;;;-2.42;71.65;99081.28;5062099;28;20036;-74
2023/03/01 06:18:24;;;;;;;31.45;26.98;;;;;;;-2.53;71.68;99074.38;5056228;28;20017;-74
2023/03/01 06:20:53;;;;;;;32.33;25.52;;;;;;;-2.50;72.01;99078.53;5049761;28;20044;-74
2023/03/01 06:23:18;;;;;;;30.67;27.40;;;;;;;-2.51;71.50;99079.50;5047294;28;20025;-73
2023/03/01 06:25:44;;;;;;;31.42;28.02;;;;;;;-2.38;71.60;99067.69;5032901;28;20063;-75
2023/03/01 06:28:09;;;;;;;34.97;25.13;;;;;;;-2.52;71.84;99070.75;5064268;28;20094;-74
2023/03/01 06:30:35;;;;;;;33.20;28.90;;;;;;;-2.60;72.29;99073.28;5032831;28;20033;-74
2023/03/01 06:33:01;;;;;;;31.63;28.27;;;;;;;-2.49;71.82;99072.28;5062501;28;20250;-75
2023/03/01 06:35:29;;;;;;;31.02;27.83;;;;;;;-2.46;72.32;99077.28;5062253;28;20040;-75
2023/03/01 06:37:55;;;;;;;32.20;28.77;;;;;;;-2.39;72.73;99075.75;5056082;28;20074;-74
2023/03/01 06:40:21;;;;;;;33.78;23.33;;;;;;;-2.50;72.95;99068.81;5081279;28;20032;-74
2023/03/01 06:42:50;;;;;;;32.25;28.75;;;;;;;-2.44;73.28;99062.97;5049170;28;20051;-74
2023/03/01 06:45:16;;;;;;;31.42;28.13;;;;;;;-2.22;72.65;99061.84;5049005;28;20036;-73
2023/03/01 06:47:42;;;;;;;33.03;29.08;;;;;;;-2.24;72.04;99054.03;5049366;28;20036;-74
2023/03/01 06:50:08;;;;;;;29.30;26.20;;;;;;;-2.34;71.93;99055.06;5069249;28;20033;-74
2023/03/01 06:52:33;;;;;;;31.52;28.23;;;;;;;-2.21;72.19;99047.66;5055582;28;20479;-75
2023/03/01 06:54:58;;;;;;;31.50;28.20;;;;;;;-2.13;71.62;99050.41;5060517;28;20084;-74
2023/03/01 06:57:24;;;;;;;31.48;28.08;;;;;;;-2.11;71.79;99048.47;5071406;28;20150;-74
2023/03/01 06:59:49;;;;;;;38.08;24.52;;;;;;;-2.11;71.46;99048.47;5052847;28;20033;-74
2023/03/01 07:02:15;;;;;;;30.70;27.40;;;;;;;-2.04;71.57;99054.81;5077649;28;20463;-75
2023/03/01 07:04:41;;;;;;;31.27;27.98;;;;;;;-2.02;71.48;99052.03;5081215;28;20099;-74
2023/03/01 07:07:06;;;;;;;36.15;23.65;;;;;;;-2.03;71.66;99051.19;5059303;28;20110;-74
2023/03/01 07:09:32;;;;;;;31.42;28.13;;;;;;;-1.87;71.21;99050.59;5061687;28;20480;-74
2023/03/01 07:11:57;;;;;;;31.48;28.08;;;;;;;-1.81;71.05;99055.28;5066117;28;20014;-75
2023/03/01 07:14:26;;;;;;;36.15;22.35;;;;;;;-1.74;70.92;99056.38;5057893;28;20445;-74
2023/03/01 07:16:55;;;;;;;31.13;27.50;;;;;;;-1.79;71.27;99058.59;5069976;28;20499;-74
2023/03/01 07:19:21;;;;;;;31.60;28.30;;;;;;;-1.55;70.97;99054.47;5063081;28;20064;-74
2023/03/01 07:21:47;;;;;;;31.30;27.75;;;;;;;-1.65;70.53;99056.31;5072530;28;20493;-74
2023/03/01 07:24:13;;;;;;;32.50;28.80;;;;;;;-1.58;70.03;99052.13;5084925;28;20035;-75
2023/03/01 07:26:38;;;;;;;29.95;26.85;;;;;;;-1.38;70.17;99052.03;5057629;28;20020;-74
2023/03/01 07:29:05;;;;;;;30.98;27.70;;;;;;;-1.43;69.87;99037.47;5072232;28;20407;-73
2023/03/01 07:31:31;;;;;;;29.58;26.20;;;;;;;-1.38;70.00;99048.38;5066281;28;20036;-74
2023/03/01 07:33:57;;;;;;;30.30;27.10;;;;;;;-1.38;69.61;99040.47;5065096;28;20119;-74
2023/03/01 07:36:23;;;;;;;30.92;26.65;;;;;;;-1.23;69.49;99037.31;5061480;28;20542;-74
2023/03/01 07:38:48;;;;;;;29.55;26.35;;;;;;;-1.28;68.97;99031.66;5092386;28;20035;-74
2023/03/01 07:41:14;;;;;;;30.67;27.38;;;;;;;-1.04;68.93;99032.72;5068486;28;20384;-74
2023/03/01 07:43:39;;;;;;;29.45;26.27;;;;;;;-1.07;68.42;99040.94;5065439;28;20043;-75
2023/03/01 07:46:06;;;;;;;29.88;25.90;;;;;;;-1.04;68.84;99040.66;5072068;28;20372;-74
2023/03/01 07:48:32;;;;;;;31.30;26.42;;;;;;;-0.94;68.41;99044.06;5052281;28;20036;-75
2023/03/01 07:50:59;;;;;;;30.25;26.85;;;;;;;-1.00;68.09;99035.88;5070980;28;20028;-75
2023/03/01 07:53:25;;;;;;;28.58;25.58;;;;;;;-0.85;67.52;99035.22;5051793;28;20496;-74
2023/03/01 07:56:00;;;;;;;30.35;26.25;;;;;;;-0.75;67.50;99035.16;5050386;28;20103;-74
2023/03/01 07:58:25;;;;;;;32.83;22.42;;;;;;;-0.79;67.92;99028.47;5045438;28;20039;-75
2023/03/01 08:00:51;;;;;;;29.70;26.30;;;;;;;-0.79;67.05;99018.75;5072954;28;20032;-74
2023/03/01 08:03:16;;;;;;;28.50;25.30;;;;;;;-0.59;67.00;99022.06;5072740;28;20090;-75
2023/03/01 08:05:41;;;;;;;31.00;26.38;;;;;;;-0.48;66.81;99016.50;5070861;28;20657;-75
2023/03/01 08:08:07;;;;;;;29.38;25.33;;;;;;;-0.34;66.08;99018.59;5071781;28;20036;-74
2023/03/01 08:10:32;;;;;;;28.17;24.02;;;;;;;-0.34;65.78;99008.00;5051862;28;20547;-75
2023/03/01 08:12:57;;;;;;;32.03;25.70;;;;;;;-0.11;65.91;99014.44;5066140;28;20029;-73
2023/03/01 08:15:23;;;;;;;29.58;24.77;;;;;;;0.08;65.93;99012.53;5050913;28;20567;-73
2023/03/01 08:17:49;;;;;;;30.75;25.50;;;;;;;-0.03;65.29;99014.50;5069070;28;20028;-75
2023/03/01 08:20:16;;;;;;;27.85;24.83;;;;;;;-0.04;65.11;99012.81;5054870;28;20483;-74
2023/03/01 08:22:42;;;;;;;30.25;25.05;;;;;;;0.10;64.75;99011.38;5072429;28;20090;-75
2023/03/01 08:25:07;;;;;;;28.17;24.20;;;;;;;0.15;64.72;98997.66;5066802;28;20566;-74
2023/03/01 08:27:33;;;;;;;28.98;24.13;;;;;;;0.29;63.63;99010.31;5070899;28;20032;-74
2023/03/01 08:29:58;;;;;;;28.52;24.85;;;;;;;0.33;63.68;99006.34;5061418;28;20431;-75
2023/03/01 08:32:24;;;;;;;31.23;24.70;;;;;;;0.58;63.44;99008.13;5072226;28;20035;-74
2023/03/01 08:34:49;;;;;;;28.67;24.25;;;;;;;0.48;62.84;99010.91;5070714;28;20032;-74
2023/03/01 08:37:14;;;;;;;27.60;23.60;;;;;;;0.51;61.99;99007.09;5045542;28;20037;-74
2023/03/01 08:39:40;;;;;;;30.30;23.92;;;;;;;0.47;62.59;99003.09;5065365;28;20056;-74
2023/03/01 08:42:05;;;;;;;28.80;24.58;;;;;;;0.57;62.65;99003.78;5051080;28;20413;-76
2023/03/01 08:44:30;;;;;;;28.42;24.13;;;;;;;0.62;62.80;99001.50;5050675;28;20115;-75
2023/03/01 08:46:57;;;;;;;28.40;24.48;;;;;;;0.60;63.44;98998.19;5051882;28;20527;-74
2023/03/01 08:49:23;;;;;;;28.13;24.17;;;;;;;0.61;63.72;99008.59;5051837;28;20032;-74
2023/03/01 08:51:49;;;;;;;28.80;24.13;;;;;;;0.61;62.65;98999.81;5050126;28;20043;-74
2023/03/01 08:54:16;;;;;;;27.70;24.38;;;;;;;0.65;61.38;99011.78;5037250;28;20016;-74
2023/03/01 08:56:42;;;;;;;29.20;24.27;;;;;;;0.60;62.55;98993.72;5064113;28;20047;-74
2023/03/01 08:59:07;;;;;;;30.15;24.98;;;;;;;0.97;62.07;99001.22;5067196;28;20028;-74
2023/03/01 09:01:33;;;;;;;29.75;24.35;;;;;;;0.90;61.64;98994.91;5070677;28;20115;-74
2023/03/01 09:03:58;;;;;;;28.50;24.23;;;;;;;0.92;61.27;98994.75;5063124;28;20032;-73
2023/03/01 09:06:24;;;;;;;27.05;24.23;;;;;;;0.93;61.28;98999.91;5063944;28;20032;-74
2023/03/01 09:08:50;;;;;;;28.15;24.20;;;;;;;0.99;61.49;98988.63;5057189;28;20551;-74
2023/03/01 09:11:18;;;;;;;29.85;24.38;;;;;;;0.97;60.76;98985.31;5048977;28;20041;-74
2023/03/01 09:13:45;;;;;;;26.77;23.88;;;;;;;1.12;59.83;98978.34;5048683;28;20024;-73
2023/03/01 09:16:11;;;;;;;27.95;23.77;;;;;;;1.08;60.01;98986.81;5033054;28;20118;-74
2023/03/01 09:18:37;;;;;;;27.45;24.02;;;;;;;1.27;61.71;98981.19;5061673;28;20036;-74
2023/03/01 09:21:06;;;;;;;26.80;23.08;;;;;;;1.21;60.70;98966.75;5063789;28;20032;-75
2023/03/01 09:23:36;;;;;;;28.73;23.88;;;;;;;1.25;60.77;98978.69;5057884;28;20047;-73
2023/03/01 09:26:02;;;;;;;29.42;25.00;;;;;;;1.41;61.02;98977.84;5056515;28;20067;-74
2023/03/01 09:28:28;;;;;;;29.25;24.80;;;;;;;1.33;60.06;98965.41;5062529;28;20021;-73
2023/03/01 09:30:53;;;;;;;27.45;23.45;;;;;;;1.48;60.06;98978.00;5034055;28;20425;-74
2023/03/01 09:33:19;;;;;;;25.98;23.13;;;;;;;1.58;60.58;98962.75;5069793;28;20477;-74
2023/03/01 09:35:46;;;;;;;29.42;25.02;;;;;;;1.74;59.75;98957.41;5070563;28;20024;-74
2023/03/01 09:38:15;;;;;;;28.08;23.48;;;;;;;1.71;59.63;98957.72;5057449;28;20035;-75
2023/03/01 09:40:46;;;;;;;31.25;24.50;;;;;;;1.77;59.21;98954.41;5039714;28;20040;-73
2023/03/01 09:43:27;;;;;;;30.17;23.92;;;;;;;1.95;58.11;98960.31;5052100;28;20399;-74
2023/03/01 09:45:53;;;;;;;29.50;23.17;;;;;;;2.04;58.49;98951.31;5056211;28;20032;-74
2023/03/01 09:48:23;;;;;;;27.55;23.35;;;;;;;2.12;58.10;98953.97;5066251;23;20052;-76
2023/03/01 09:50:49;;;;;;;28.23;22.85;;;;;;;2.00;56.82;98937.56;5056845;28;20052;-77
2023/03/01 09:53:23;;;;;;;26.27;22.67;;;;;;;2.32;58.02;98943.72;5043229;28;20040;-77
2023/03/01 09:55:55;;;;;;;26.13;21.70;;;;;;;2.27;57.87;98949.56;5050285;28;20470;-77
2023/03/01 09:58:45;;;;;;;27.52;22.92;;;;;;;2.14;57.94;98949.31;5034126;28;20120;-78
2023/03/01 10:01:21;;;;;;;28.15;22.67;;;;;;;2.34;57.86;98955.84;5057430;28;20455;-78
2023/03/01 10:04:27;;;;;;;26.55;23.50;;;;;;;2.28;56.52;98945.91;5058002;28;20395;-77
2023/03/01 10:07:10;;;;;;;25.10;21.85;;;;;;;2.60;57.62;98939.59;5040028;28;20476;-77
2023/03/01 10:09:38;;;;;;;25.45;21.83;;;;;;;2.82;56.33;98938.78;5055109;28;20037;-78
2023/03/01 10:12:09;;;;;;;26.65;22.10;;;;;;;2.77;56.01;98935.81;5062381;28;20017;-76
2023/03/01 10:14:35;;;;;;;23.83;21.10;;;;;;;2.90;54.74;98940.53;5046787;28;20036;-78
2023/03/01 10:17:03;;;;;;;25.02;21.40;;;;;;;2.82;54.29;98927.31;5044643;28;20496;-77
2023/03/01 10:19:44;;;;;;;26.08;21.88;;;;;;;2.97;53.94;98936.16;5047211;28;20488;-78
2023/03/01 10:22:21;;;;;;;25.80;21.27;;;;;;;2.85;54.07;98933.09;5053448;28;20429;-78
2023/03/01 10:24:47;;;;;;;24.38;19.98;;;;;;;2.88;54.15;98930.09;5023515;28;20105;-77
2023/03/01 10:27:34;;;;;;;28.48;21.73;;;;;;;3.12;54.64;98932.56;5046502;28;20476;-77
2023/03/01 10:30:15;;;;;;;24.67;21.63;;;;;;;3.23;53.09;98925.97;5044152;28;20036;-77
2023/03/01 10:32:41;;;;;;;25.70;21.52;;;;;;;2.94;54.99;98915.25;5044004;28;20480;-77
2023/03/01 10:35:24;;;;;;;27.02;21.98;;;;;;;3.24;54.97;98922.31;5031368;28;20029;-77
2023/03/01 10:38:08;;;;;;;28.75;22.70;;;;;;;3.17;55.68;98921.38;5046659;28;20041;-77
2023/03/01 10:40:35;;;;;;;27.17;22.27;;;;;;;3.27;53.48;98921.94;5027265;28;20043;-77
2023/03/01 10:43:05;;;;;;;29.38;23.40;;;;;;;3.41;55.87;98919.31;5061020;28;20020;-77
2023/03/01 10:45:37;;;;;;;26.00;21.60;;;;;;;3.43;53.69;98916.50;5026913;28;20029;-77
2023/03/01 10:48:27;;;;;;;26.60;21.90;;;;;;;3.56;53.23;98911.34;5030746;28;20079;-77
2023/03/01 10:50:58;;;;;;;27.25;23.05;;;;;;;3.49;55.22;98907.75;5047407;28;20048;-78
2023/03/01 10:53:26;;;;;;;26.58;22.33;;;;;;;3.45;54.10;98906.47;5059435;28;20139;-78
2023/03/01 10:56:09;;;;;;;25.80;22.73;;;;;;;3.57;56.13;98890.88;5060158;28;20028;-77
2023/03/01 10:58:40;;;;;;;26.70;23.77;;;;;;;3.52;54.39;98899.41;5042040;28;20045;-77
2023/03/01 11:01:25;;;;;;;29.30;23.35;;;;;;;3.43;54.86;98884.53;5044988;28;20033;-77
2023/03/01 11:04:06;;;;;;;27.05;23.25;;;;;;;3.47;54.68;98888.47;5065076;28;20040;-78
2023/03/01 11:06:32;;;;;;;28.45;22.73;;;;;;;3.57;53.36;98885.56;5050624;28;20078;-77
2023/03/01 11:09:13;;;;;;;27.30;22.77;;;;;;;3.75;54.83;98876.19;5047347;28;20025;-78
2023/03/01 11:11:39;;;;;;;29.42;23.35;;;;;;;3.83;54.98;98881.41;5062600;28;20586;-78
2023/03/01 11:14:17;;;;;;;26.70;21.42;;;;;;;3.96;53.77;98870.94;5036722;28;20041;-78
2023/03/01 11:16:45;;;;;;;25.27;22.60;;;;;;;4.11;55.14;98868.22;5046656;28;20034;-78
2023/03/01 11:19:10;;;;;;;28.02;22.77;;;;;;;4.31;51.82;98869.31;5053890;28;20031;-76
2023/03/01 11:21:42;;;;;;;26.60;20.60;;;;;;;4.20;51.65;98867.13;5053236;28;20096;-76
2023/03/01 11:24:13;;;;;;;27.27;21.98;;;;;;;4.15;52.42;98859.66;5018505;28;20044;-77
2023/03/01 11:26:47;;;;;;;23.45;19.90;;;;;;;4.09;51.02;98855.09;5083955;28;20116;-76
2023/03/01 11:29:24;;;;;;;24.02;20.77;;;;;;;4.36;50.63;98861.56;5049179;28;20066;-77